This is the latest recevied weather packets stored in our database for station/object DB7GV-8. If no packets are shown the sender has not sent any weather packets the latest 10 day(s).
| Time | Temp. | Humidity | Pressure | Rain* | Wind** | Luminosity | Snow |
|---|---|---|---|---|---|---|---|
| 1777969350 | 16.11° C | 61% | 1010.6 hPa | - | - | - | - |
| 1777968445 | 16.67° C | 58% | 1010.5 hPa | - | - | - | - |
| 1777967539 | 17.22° C | 56% | 1010.6 hPa | - | - | - | - |
| 1777966634 | 19.44° C | 49% | 1010.8 hPa | - | - | - | - |
| 1777965729 | 23.89° C | 42% | 1010.9 hPa | - | - | - | - |
| 1777964824 | 25.56° C | 41% | 1011 hPa | - | - | - | - |
| 1777963917 | 23.89° C | 48% | 1011.1 hPa | - | - | - | - |
| 1777963013 | 17.22° C | 70% | 1011.1 hPa | - | - | - | - |
| 1777962107 | 13.33° C | 78% | 1011.4 hPa | - | - | - | - |
| 1777961201 | 12.22° C | 81% | 1011.4 hPa | - | - | - | - |
| 1777960296 | 11.67° C | 81% | 1011.2 hPa | - | - | - | - |
| 1777959391 | 11.67° C | 82% | 1011.1 hPa | - | - | - | - |
| 1777958485 | 11.11° C | 82% | 1011.1 hPa | - | - | - | - |
| 1777957580 | 10.56° C | 83% | 1011.2 hPa | - | - | - | - |
| 1777956674 | 10.56° C | 83% | 1011.2 hPa | - | - | - | - |
| 1777955769 | 10° C | 84% | 1011.2 hPa | - | - | - | - |
| 1777954863 | 9.44° C | 84% | 1011.3 hPa | - | - | - | - |
| 1777953958 | 10° C | 83% | 1011.2 hPa | - | - | - | - |
| 1777943093 | 11.11° C | 80% | 1012.5 hPa | - | - | - | - |
| 1777940377 | 12.22° C | 79% | 1013 hPa | - | - | - | - |
| 1777939471 | 12.78° C | 78% | 1013.2 hPa | - | - | - | - |
| 1777938566 | 13.33° C | 77% | 1013.4 hPa | - | - | - | - |
| 1777934945 | 13.33° C | 75% | 1013.5 hPa | - | - | - | - |
| 1777930417 | 13.89° C | 72% | 1014.1 hPa | - | - | - | - |
| 1777929512 | 14.44° C | 71% | 1014.1 hPa | - | - | - | - |
* Rain since midnight (hover to see other rain measurements)
** Current wind speed in m/s (hover to see current wind gust speed)